Terminal Aerodrome Forecast
Issued by NWS Newport/Morehead City, NC

Home | Current Version | Previous Version | Graphics & Text | Print | Product List | Glossary On
Versions: 1 2 3 4 5 6 7 8 9 10 11 12 13 14 15 16 17 18 19 20 21 22 23 24 25 26 27
000
FTUS42 KMHX 192000 AAA
TAFEWN
TAF AMD
KEWN 192040Z 1921/2018 30007KT P6SM SCT025 BKN035
     FM192100 29008KT P6SM VCTS BKN035CB
     FM200200 33004KT P6SM SCT040 BKN100
     FM200800 01003KT 5SM BR SCT007 BKN100
     FM201300 02005KT P6SM SCT040=

USA.gov is the U.S. government's official web portal to all federal, state and local government web resources and services.